Time;durP1;ratioP1;P1;durP2;ratioP2;P2;SDS_P1;SDS_P2;PMS_P1;PMS_P2;Temp;Humidity;BMP_temperature;BMP_pressure;BME280_temperature;BME280_humidity;BME280_pressure;Samples;Min_cycle;Max_cycle;Signal;HPM_P1;HPM_P2
2024/04/06 00:02:15;;;;;;;1.45;0.90;;;19.70;61.70;;;;;;5036211;28;20043;-67
2024/04/06 00:04:44;;;;;;;1.52;0.70;;;19.70;61.70;;;;;;5044392;28;20029;-68
2024/04/06 00:07:09;;;;;;;1.52;0.70;;;19.80;61.80;;;;;;5043841;28;20388;-68
2024/04/06 00:09:36;;;;;;;1.17;0.60;;;19.70;61.80;;;;;;5038308;28;20029;-67
2024/04/06 00:12:01;;;;;;;1.15;0.50;;;19.80;61.80;;;;;;5037737;28;20029;-68
2024/04/06 00:14:27;;;;;;;1.23;0.90;;;19.70;61.80;;;;;;5037345;28;20040;-67
2024/04/06 00:16:52;;;;;;;1.25;0.70;;;19.70;61.80;;;;;;5042499;28;20029;-68
2024/04/06 00:19:18;;;;;;;1.23;0.75;;;19.70;61.80;;;;;;5037120;28;20068;-67
2024/04/06 00:21:45;;;;;;;1.92;0.60;;;19.70;61.80;;;;;;5037798;28;20033;-67
2024/04/06 00:24:10;;;;;;;0.70;0.60;;;19.70;61.80;;;;;;5039120;28;20692;-67
2024/04/06 00:26:36;;;;;;;1.13;0.70;;;19.70;61.80;;;;;;5039027;28;20029;-68
2024/04/06 00:29:01;;;;;;;1.25;0.60;;;19.70;61.70;;;;;;5043014;28;20453;-67
2024/04/06 00:31:27;;;;;;;1.20;0.65;;;19.70;61.80;;;;;;5039388;28;20120;-66
2024/04/06 00:33:53;;;;;;;1.00;0.50;;;19.70;61.80;;;;;;5040654;28;20494;-68
2024/04/06 00:36:18;;;;;;;1.73;0.50;;;19.70;61.90;;;;;;5036826;28;20039;-64
2024/04/06 00:38:44;;;;;;;2.15;0.50;;;19.70;61.80;;;;;;5044242;28;20486;-67
2024/04/06 00:41:09;;;;;;;1.48;0.50;;;19.70;61.90;;;;;;5039315;28;20033;-68
2024/04/06 00:43:35;;;;;;;1.52;0.65;;;19.70;61.80;;;;;;5039015;28;20473;-68
2024/04/06 00:46:00;;;;;;;0.60;0.45;;;19.70;61.90;;;;;;5040418;28;20058;-68
2024/04/06 00:48:26;;;;;;;1.05;0.50;;;19.70;61.90;;;;;;5039518;28;20506;-65
2024/04/06 00:50:56;;;;;;;1.52;0.40;;;19.80;61.90;;;;;;5040448;28;20056;-68
2024/04/06 00:53:22;;;;;;;1.02;0.50;;;19.80;61.90;;;;;;5038712;28;20087;-68
2024/04/06 00:55:47;;;;;;;1.48;0.60;;;19.70;61.90;;;;;;5042701;28;20116;-65
2024/04/06 00:58:13;;;;;;;1.25;0.65;;;19.70;61.90;;;;;;5035839;28;20033;-69
2024/04/06 01:00:38;;;;;;;1.60;0.70;;;19.80;61.90;;;;;;5038176;28;20044;-68
2024/04/06 01:03:04;;;;;;;1.00;0.40;;;19.70;61.90;;;;;;5036146;28;20404;-67
2024/04/06 01:05:29;;;;;;;0.82;0.50;;;19.70;61.90;;;;;;5036274;28;20423;-68
2024/04/06 01:07:55;;;;;;;0.40;0.40;;;19.70;61.90;;;;;;5040692;28;20040;-68
2024/04/06 01:10:20;;;;;;;1.83;0.63;;;19.70;61.90;;;;;;5036124;28;20041;-68
2024/04/06 01:12:46;;;;;;;0.77;0.45;;;19.80;62.00;;;;;;5040006;28;20514;-67
2024/04/06 01:15:11;;;;;;;0.95;0.60;;;19.70;62.00;;;;;;5043434;28;20040;-67
2024/04/06 01:17:37;;;;;;;0.95;0.50;;;19.70;62.00;;;;;;5037673;28;20500;-67
2024/04/06 01:20:06;;;;;;;0.75;0.50;;;19.70;62.00;;;;;;5037154;28;20048;-66
2024/04/06 01:22:32;;;;;;;1.17;0.50;;;19.70;62.00;;;;;;5038042;28;20037;-68
2024/04/06 01:24:58;;;;;;;0.85;0.45;;;19.60;62.00;;;;;;5040807;28;20032;-68
2024/04/06 01:27:24;;;;;;;1.67;0.52;;;19.70;62.10;;;;;;5037790;28;20041;-68
2024/04/06 01:29:50;;;;;;;0.60;0.50;;;19.70;62.10;;;;;;5040140;28;20424;-68
2024/04/06 01:32:15;;;;;;;0.85;0.45;;;19.70;62.20;;;;;;5037967;28;20033;-64
2024/04/06 01:34:41;;;;;;;0.88;0.50;;;19.60;62.20;;;;;;5041557;28;20037;-68
2024/04/06 01:37:06;;;;;;;0.88;0.60;;;19.60;62.20;;;;;;5038246;28;20021;-68
2024/04/06 01:39:32;;;;;;;0.90;0.70;;;19.60;62.20;;;;;;5039759;28;20219;-68
2024/04/06 01:41:57;;;;;;;1.15;0.70;;;19.60;62.30;;;;;;5040470;28;20029;-68
2024/04/06 01:44:23;;;;;;;1.02;0.50;;;19.70;62.30;;;;;;5039884;28;20056;-68
2024/04/06 01:46:48;;;;;;;1.15;0.70;;;19.60;62.20;;;;;;5042759;28;20039;-68
2024/04/06 01:49:14;;;;;;;1.10;0.60;;;19.60;62.30;;;;;;5037534;28;20037;-67
2024/04/06 01:51:40;;;;;;;0.82;0.50;;;19.60;62.20;;;;;;5042407;28;20041;-68
2024/04/06 01:54:05;;;;;;;0.80;0.60;;;19.60;62.20;;;;;;5044510;28;20322;-68
2024/04/06 01:56:31;;;;;;;1.17;0.50;;;19.60;62.20;;;;;;5056345;28;20120;-68
2024/04/06 01:58:56;;;;;;;0.63;0.40;;;19.60;62.20;;;;;;5042135;28;20191;-69
2024/04/06 02:01:22;;;;;;;1.27;0.80;;;19.60;62.20;;;;;;5030321;28;20026;-68
2024/04/06 02:03:47;;;;;;;0.90;0.50;;;19.60;62.20;;;;;;5033236;28;20041;-66
2024/04/06 02:06:13;;;;;;;1.50;0.55;;;19.70;62.20;;;;;;5034192;28;20033;-68
2024/04/06 02:08:38;;;;;;;1.33;0.50;;;19.60;62.20;;;;;;5033157;28;20036;-66
2024/04/06 02:11:04;;;;;;;0.55;0.45;;;19.60;62.10;;;;;;5036475;28;20325;-67
2024/04/06 02:13:30;;;;;;;0.93;0.60;;;19.70;62.20;;;;;;5035471;28;20025;-67
2024/04/06 02:15:57;;;;;;;0.90;0.50;;;19.70;62.20;;;;;;5036699;28;20033;-68
2024/04/06 02:18:22;;;;;;;0.50;0.50;;;19.70;62.20;;;;;;5037063;28;20025;-67
2024/04/06 02:20:48;;;;;;;0.55;0.50;;;19.60;62.20;;;;;;5038195;28;20052;-67
2024/04/06 02:23:14;;;;;;;0.82;0.40;;;19.60;62.20;;;;;;5039415;28;20071;-68
2024/04/06 02:25:39;;;;;;;1.63;0.70;;;19.70;62.20;;;;;;5041175;28;20341;-68
2024/04/06 02:28:05;;;;;;;1.17;0.60;;;19.70;62.20;;;;;;5039413;28;20040;-66
2024/04/06 02:30:31;;;;;;;1.08;0.52;;;19.60;62.20;;;;;;5039760;28;20014;-68
2024/04/06 02:32:57;;;;;;;0.75;0.60;;;19.60;62.20;;;;;;5044770;28;20029;-69
2024/04/06 02:35:23;;;;;;;1.27;0.52;;;19.60;62.20;;;;;;5044606;28;20025;-65
2024/04/06 02:37:49;;;;;;;0.65;0.50;;;19.60;62.20;;;;;;5047934;28;20360;-68
2024/04/06 02:40:14;;;;;;;1.00;0.57;;;19.60;62.20;;;;;;5042749;28;21835;-68
2024/04/06 02:42:40;;;;;;;1.10;0.50;;;19.60;62.20;;;;;;5045239;28;20450;-67
2024/04/06 02:45:07;;;;;;;0.73;0.60;;;19.70;62.30;;;;;;5043638;28;20036;-67
2024/04/06 02:47:33;;;;;;;1.08;0.47;;;19.60;62.20;;;;;;5042342;28;20029;-67
2024/04/06 02:49:58;;;;;;;0.60;0.43;;;19.60;62.30;;;;;;5045141;28;20436;-68
2024/04/06 02:52:24;;;;;;;0.63;0.57;;;19.60;62.40;;;;;;5048304;28;20025;-66
2024/04/06 02:54:49;;;;;;;0.95;0.57;;;19.60;62.30;;;;;;5046390;28;20495;-67
2024/04/06 02:57:15;;;;;;;0.40;0.32;;;19.60;62.30;;;;;;5041366;28;20039;-69
2024/04/06 02:59:41;;;;;;;1.55;0.80;;;19.60;62.30;;;;;;5044187;28;20463;-67
2024/04/06 03:02:10;;;;;;;1.38;0.60;;;19.60;62.40;;;;;;5031438;28;20248;-68
2024/04/06 03:04:36;;;;;;;3.03;0.63;;;19.60;62.40;;;;;;5041995;28;20646;-68
2024/04/06 03:07:02;;;;;;;1.13;0.50;;;19.60;62.40;;;;;;5036755;28;20048;-68
2024/04/06 03:09:27;;;;;;;1.70;0.50;;;19.60;62.40;;;;;;5038378;28;20044;-67
2024/04/06 03:11:53;;;;;;;0.95;0.50;;;19.60;62.40;;;;;;5038919;28;20048;-68
2024/04/06 03:14:19;;;;;;;0.85;0.47;;;19.60;62.40;;;;;;5040837;28;20537;-66
2024/04/06 03:16:44;;;;;;;0.60;0.47;;;19.60;62.40;;;;;;5036010;28;20036;-65
2024/04/06 03:19:10;;;;;;;1.00;0.50;;;19.60;62.40;;;;;;5012146;28;20388;-67
2024/04/06 03:21:35;;;;;;;0.50;0.40;;;19.60;62.40;;;;;;5048190;28;20057;-68
2024/04/06 03:24:01;;;;;;;0.55;0.47;;;19.60;62.40;;;;;;5036789;28;20115;-68
2024/04/06 03:26:26;;;;;;;0.80;0.50;;;19.60;62.40;;;;;;5031841;28;20029;-68
2024/04/06 03:28:52;;;;;;;0.60;0.50;;;19.60;62.40;;;;;;5033529;28;20098;-67
2024/04/06 03:31:18;;;;;;;0.65;0.40;;;19.60;62.40;;;;;;5038123;28;20041;-68
2024/04/06 03:33:43;;;;;;;0.90;0.50;;;19.60;62.40;;;;;;5042936;28;20381;-66
2024/04/06 03:36:09;;;;;;;0.90;0.57;;;19.60;62.40;;;;;;5043324;28;20055;-68
2024/04/06 03:38:34;;;;;;;0.80;0.43;;;19.60;62.40;;;;;;5046621;28;20622;-68
2024/04/06 03:41:00;;;;;;;0.80;0.60;;;19.60;62.40;;;;;;5033459;28;20022;-68
2024/04/06 03:43:26;;;;;;;0.60;0.50;;;19.60;62.40;;;;;;5036756;28;20159;-68
2024/04/06 03:45:51;;;;;;;0.65;0.50;;;19.60;62.40;;;;;;5035397;28;20025;-69
2024/04/06 03:48:18;;;;;;;0.60;0.40;;;19.60;62.40;;;;;;5041680;28;20384;-65
2024/04/06 03:50:43;;;;;;;0.63;0.50;;;19.60;62.40;;;;;;5038218;28;20041;-66
2024/04/06 03:53:10;;;;;;;0.98;0.55;;;19.60;62.40;;;;;;5041901;28;20529;-68
2024/04/06 03:55:35;;;;;;;0.50;0.40;;;19.60;62.30;;;;;;5035186;28;20641;-68
2024/04/06 03:58:01;;;;;;;1.85;0.45;;;19.60;62.30;;;;;;5041994;28;20029;-66
2024/04/06 04:00:26;;;;;;;1.40;0.60;;;19.60;62.30;;;;;;5036039;28;20037;-68
2024/04/06 04:02:52;;;;;;;1.88;0.52;;;19.60;62.40;;;;;;5041716;28;20040;-66
2024/04/06 04:05:17;;;;;;;0.70;0.47;;;19.60;62.40;;;;;;5039078;28;20491;-66
2024/04/06 04:07:43;;;;;;;0.93;0.50;;;19.60;62.30;;;;;;5041697;28;20112;-67
2024/04/06 04:10:08;;;;;;;0.80;0.50;;;19.60;62.40;;;;;;5036857;28;20044;-66
2024/04/06 04:12:34;;;;;;;1.80;0.75;;;19.60;62.30;;;;;;5039293;28;20040;-68
2024/04/06 04:15:01;;;;;;;1.08;0.45;;;19.60;62.30;;;;;;5036882;28;20588;-68
2024/04/06 04:17:26;;;;;;;0.57;0.45;;;19.60;62.30;;;;;;5045122;28;22167;-69
2024/04/06 04:19:52;;;;;;;0.60;0.50;;;19.60;62.30;;;;;;5034137;28;20033;-69
2024/04/06 04:22:18;;;;;;;0.65;0.40;;;19.60;62.30;;;;;;5034546;28;20021;-68
2024/04/06 04:24:43;;;;;;;0.75;0.60;;;19.60;62.30;;;;;;5034607;28;20040;-68
2024/04/06 04:27:09;;;;;;;0.85;0.55;;;19.60;62.30;;;;;;5039885;28;20029;-68
2024/04/06 04:29:35;;;;;;;1.48;0.60;;;19.60;62.30;;;;;;5038818;28;20040;-68
2024/04/06 04:32:00;;;;;;;1.55;0.50;;;19.60;62.30;;;;;;5035923;28;20025;-66
2024/04/06 04:34:26;;;;;;;0.60;0.60;;;19.60;62.30;;;;;;5042233;28;20973;-67
2024/04/06 04:36:51;;;;;;;0.80;0.50;;;19.60;62.20;;;;;;5035669;28;20041;-68
2024/04/06 04:39:17;;;;;;;0.57;0.43;;;19.70;62.30;;;;;;5041068;28;20456;-68
2024/04/06 04:41:43;;;;;;;0.98;0.50;;;19.70;62.30;;;;;;5038353;28;20033;-68
2024/04/06 04:44:08;;;;;;;0.65;0.43;;;19.60;62.20;;;;;;5035882;28;20743;-69
2024/04/06 04:46:34;;;;;;;1.02;0.50;;;19.70;62.30;;;;;;5034036;28;20040;-67
2024/04/06 04:48:59;;;;;;;0.93;0.82;;;19.60;62.30;;;;;;5033783;28;20029;-68
2024/04/06 04:51:26;;;;;;;0.77;0.52;;;19.60;62.20;;;;;;5039091;28;20041;-68
2024/04/06 04:53:52;;;;;;;1.13;0.65;;;19.70;62.30;;;;;;5038723;28;20037;-68
2024/04/06 04:56:18;;;;;;;1.05;0.50;;;19.70;62.30;;;;;;5034743;28;20079;-68
2024/04/06 04:58:43;;;;;;;0.60;0.40;;;19.60;62.20;;;;;;5036837;28;20599;-68
2024/04/06 05:01:09;;;;;;;0.65;0.40;;;19.60;62.20;;;;;;5037797;28;20439;-69
2024/04/06 05:03:35;;;;;;;0.52;0.38;;;19.60;62.20;;;;;;5036548;28;20025;-68
2024/04/06 05:06:01;;;;;;;0.60;0.57;;;19.70;62.20;;;;;;5032038;28;20025;-68
2024/04/06 05:08:27;;;;;;;0.47;0.30;;;19.70;62.20;;;;;;5037983;28;20039;-68
2024/04/06 05:10:52;;;;;;;0.88;0.60;;;19.70;62.20;;;;;;5031713;28;20017;-68
2024/04/06 05:13:18;;;;;;;0.40;0.40;;;19.70;62.30;;;;;;5036021;28;20438;-68
2024/04/06 05:15:52;;;;;;;0.50;0.40;;;19.70;62.20;;;;;;5035991;28;20083;-68
2024/04/06 05:18:19;;;;;;;0.50;0.50;;;19.70;62.20;;;;;;5030931;28;20045;-68
2024/04/06 05:20:51;;;;;;;1.33;0.50;;;19.60;62.20;;;;;;5033961;28;20071;-68
2024/04/06 05:23:18;;;;;;;0.50;0.40;;;19.70;62.20;;;;;;5035856;28;20052;-69
2024/04/06 05:25:46;;;;;;;0.50;0.50;;;19.70;62.20;;;;;;5036558;28;20530;-67
2024/04/06 05:28:11;;;;;;;0.93;0.63;;;19.70;62.20;;;;;;5051884;28;20094;-68
2024/04/06 05:30:37;;;;;;;0.82;0.60;;;19.70;62.30;;;;;;5038587;28;20037;-69
2024/04/06 05:33:03;;;;;;;1.02;0.60;;;19.70;62.20;;;;;;5041801;28;20498;-69
2024/04/06 05:35:28;;;;;;;0.98;0.50;;;19.70;62.20;;;;;;5033944;28;20087;-69
2024/04/06 05:37:54;;;;;;;0.57;0.57;;;19.70;62.20;;;;;;5032393;28;20567;-69
2024/04/06 05:40:20;;;;;;;1.45;0.95;;;19.70;62.20;;;;;;5041466;28;20033;-69
2024/04/06 05:42:45;;;;;;;0.73;0.55;;;19.60;62.20;;;;;;5038940;28;20032;-69
2024/04/06 05:45:11;;;;;;;0.55;0.50;;;19.70;62.30;;;;;;5039211;28;20605;-69
2024/04/06 05:47:36;;;;;;;0.93;0.60;;;19.70;62.20;;;;;;5036140;28;20029;-68
2024/04/06 05:50:02;;;;;;;1.27;0.57;;;19.70;62.90;;;;;;5037464;28;20528;-69
2024/04/06 05:52:28;;;;;;;0.88;0.60;;;19.70;62.20;;;;;;5036248;28;20107;-69
2024/04/06 05:54:53;;;;;;;1.75;0.50;;;19.70;62.20;;;;;;5041099;28;20511;-69
2024/04/06 05:57:19;;;;;;;0.47;0.40;;;19.70;62.20;;;;;;5031224;28;20052;-65
2024/04/06 05:59:44;;;;;;;1.02;0.68;;;19.70;62.20;;;;;;5041553;28;20569;-66
2024/04/06 06:02:10;;;;;;;0.52;0.45;;;19.70;62.20;;;;;;5031032;28;20348;-68
2024/04/06 06:04:36;;;;;;;1.17;0.65;;;19.70;62.20;;;;;;5027322;28;20459;-70
2024/04/06 06:07:01;;;;;;;0.75;0.50;;;19.70;62.20;;;;;;5028470;28;20033;-68
2024/04/06 06:09:27;;;;;;;0.55;0.50;;;19.70;62.80;;;;;;5024359;28;20034;-68
2024/04/06 06:11:52;;;;;;;1.70;0.52;;;19.70;62.20;;;;;;5031782;28;20043;-67
2024/04/06 06:14:18;;;;;;;1.55;0.57;;;19.70;62.20;;;;;;5032177;28;20033;-69
2024/04/06 06:16:43;;;;;;;2.13;0.63;;;19.70;62.20;;;;;;5029612;28;20029;-69
2024/04/06 06:19:09;;;;;;;0.93;0.50;;;19.70;62.10;;;;;;5033957;28;20225;-69
2024/04/06 06:21:34;;;;;;;1.25;0.40;;;19.70;62.10;;;;;;5036637;28;20033;-67
2024/04/06 06:24:00;;;;;;;0.77;0.50;;;19.70;62.10;;;;;;5036641;28;20396;-70
2024/04/06 06:26:25;;;;;;;1.92;0.60;;;19.70;62.10;;;;;;5034595;28;20534;-70
2024/04/06 06:28:50;;;;;;;0.60;0.50;;;19.70;62.10;;;;;;5033533;28;20056;-68
2024/04/06 06:31:16;;;;;;;0.60;0.55;;;19.70;62.10;;;;;;5039067;28;20033;-68
2024/04/06 06:33:42;;;;;;;4.55;0.98;;;19.80;62.20;;;;;;5039458;28;20031;-70
2024/04/06 06:36:08;;;;;;;1.38;0.80;;;19.70;62.10;;;;;;5041056;28;20090;-70
2024/04/06 06:38:34;;;;;;;2.55;0.95;;;19.70;62.10;;;;;;5038685;28;20446;-71
2024/04/06 06:40:59;;;;;;;2.25;0.98;;;19.80;62.10;;;;;;5039033;28;20462;-71
2024/04/06 06:43:25;;;;;;;5.57;1.58;;;19.80;62.10;;;;;;5042470;28;20079;-71
2024/04/06 06:45:50;;;;;;;2.47;1.40;;;19.80;62.10;;;;;;5039158;28;20447;-70
2024/04/06 06:48:16;;;;;;;5.72;1.20;;;19.80;62.00;;;;;;5035446;28;20040;-69
2024/04/06 06:50:41;;;;;;;4.32;1.80;;;19.80;62.10;;;;;;5039106;28;20041;-69
2024/04/06 06:53:07;;;;;;;4.55;1.45;;;19.80;62.10;;;;;;5038279;28;20507;-71
2024/04/06 06:55:32;;;;;;;4.28;1.90;;;19.80;62.00;;;;;;5039884;28;20395;-71
2024/04/06 06:57:58;;;;;;;6.38;2.00;;;19.80;62.10;;;;;;5032891;28;20055;-69
2024/04/06 07:00:23;;;;;;;3.78;1.85;;;19.80;62.10;;;;;;5035212;28;20036;-69
2024/04/06 07:02:49;;;;;;;3.92;1.80;;;19.80;62.10;;;;;;5037791;28;20120;-70
2024/04/06 07:05:14;;;;;;;6.85;2.25;;;19.80;62.00;;;;;;5036315;28;20029;-70
2024/04/06 07:07:40;;;;;;;4.10;1.80;;;19.80;62.10;;;;;;5031285;28;20082;-71
2024/04/06 07:10:06;;;;;;;4.15;1.90;;;19.80;62.10;;;;;;5032457;28;20513;-70
2024/04/06 07:12:32;;;;;;;3.95;1.75;;;19.80;62.00;;;;;;5039372;28;20044;-69
2024/04/06 07:14:58;;;;;;;3.90;1.95;;;19.90;62.10;;;;;;5036983;28;20288;-70
2024/04/06 07:17:23;;;;;;;5.25;1.98;;;19.80;62.00;;;;;;5039608;28;20102;-67
2024/04/06 07:19:49;;;;;;;3.53;1.88;;;19.90;62.00;;;;;;5037846;28;20087;-71
2024/04/06 07:22:15;;;;;;;4.95;1.98;;;19.90;62.00;;;;;;5045148;28;20036;-70
2024/04/06 07:24:41;;;;;;;4.32;1.98;;;19.90;62.00;;;;;;5038553;28;20083;-68
2024/04/06 07:27:07;;;;;;;6.68;2.15;;;19.90;62.00;;;;;;5040579;28;20045;-69
2024/04/06 07:29:33;;;;;;;4.18;2.10;;;19.90;61.90;;;;;;5038924;28;20056;-68
2024/04/06 07:31:58;;;;;;;3.83;1.92;;;19.90;62.00;;;;;;5040311;28;20053;-70
2024/04/06 07:34:24;;;;;;;4.38;2.05;;;19.90;61.90;;;;;;5041770;28;20415;-76
2024/04/06 07:36:49;;;;;;;10.93;3.47;;;19.90;64.60;;;;;;5040698;28;20037;-71
2024/04/06 07:39:15;;;;;;;8.98;3.55;;;20.00;63.40;;;;;;5041424;28;20051;-74
2024/04/06 07:41:40;;;;;;;9.80;3.72;;;20.00;62.80;;;;;;5039646;28;20547;-74
2024/04/06 07:44:06;;;;;;;8.82;3.75;;;20.00;62.70;;;;;;5040737;28;20029;-73
2024/04/06 07:46:32;;;;;;;9.90;3.30;;;20.00;62.80;;;;;;5041464;28;20025;-71
2024/04/06 07:48:58;;;;;;;6.97;3.25;;;20.00;62.70;;;;;;5038888;28;20039;-71
2024/04/06 07:51:23;;;;;;;7.45;3.67;;;20.00;62.70;;;;;;5041849;28;20039;-71
2024/04/06 07:53:49;;;;;;;8.30;2.58;;;19.90;62.60;;;;;;5037609;28;20022;-70
2024/04/06 07:56:15;;;;;;;6.78;2.75;;;19.90;62.60;;;;;;5041718;28;20056;-71
2024/04/06 07:58:40;;;;;;;9.25;3.22;;;19.90;62.70;;;;;;5038798;28;20045;-71
2024/04/06 08:01:06;;;;;;;8.32;3.78;;;19.90;62.60;;;;;;5038791;28;20108;-71
2024/04/06 08:03:31;;;;;;;8.65;3.97;;;19.90;62.50;;;;;;5040304;28;20507;-72
2024/04/06 08:06:00;;;;;;;5.97;3.20;;;19.90;62.60;;;;;;5040870;28;20095;-72
2024/04/06 08:08:26;;;;;;;7.00;2.90;;;19.90;62.60;;;;;;5037647;28;20448;-72
2024/04/06 08:10:51;;;;;;;6.47;3.17;;;19.90;62.60;;;;;;5037546;28;20025;-71
2024/04/06 08:13:17;;;;;;;5.97;2.85;;;19.90;62.60;;;;;;5041872;28;20029;-71
2024/04/06 08:15:44;;;;;;;5.18;3.53;;;19.90;62.60;;;;;;5042367;28;20240;-71
2024/04/06 08:18:09;;;;;;;7.22;2.78;;;19.80;62.50;;;;;;5041719;28;20049;-72
2024/04/06 08:20:35;;;;;;;6.65;3.08;;;19.90;62.60;;;;;;5039578;28;20124;-72
2024/04/06 08:23:00;;;;;;;6.72;3.05;;;19.90;62.60;;;;;;5038078;28;20026;-71
2024/04/06 08:25:26;;;;;;;6.60;2.90;;;19.90;62.60;;;;;;5041391;28;20049;-72
2024/04/06 08:27:51;;;;;;;5.22;2.90;;;19.90;62.60;;;;;;5040212;28;20067;-74
2024/04/06 08:30:17;;;;;;;7.28;2.88;;;19.90;62.50;;;;;;5040008;28;20726;-71
2024/04/06 08:32:43;;;;;;;5.00;2.60;;;19.90;62.50;;;;;;5042760;28;20037;-71
2024/04/06 08:35:14;;;;;;;4.97;2.75;;;19.90;62.30;;;;;;5038274;28;20037;-72
2024/04/06 08:37:40;;;;;;;8.82;3.00;;;19.90;62.30;;;;;;5037966;28;20061;-73
2024/04/06 08:40:08;;;;;;;3.97;2.00;;;19.90;62.30;;;;;;5037555;28;20040;-73
2024/04/06 08:42:42;;;;;;;4.65;2.60;;;19.90;62.30;;;;;;5041721;28;20349;-72
2024/04/06 08:45:08;;;;;;;5.22;2.85;;;19.90;62.30;;;;;;5038850;28;20113;-72
2024/04/06 08:47:34;;;;;;;4.03;2.60;;;19.90;62.20;;;;;;5040920;28;20303;-72
2024/04/06 08:50:08;;;;;;;4.00;2.33;;;20.00;62.20;;;;;;5039226;28;20037;-71
2024/04/06 08:52:37;;;;;;;8.18;2.38;;;20.00;62.20;;;;;;5041186;28;20486;-72
2024/04/06 08:55:04;;;;;;;6.93;2.83;;;20.00;62.10;;;;;;5037683;28;20045;-72
2024/04/06 08:57:37;;;;;;;3.75;2.22;;;20.00;62.10;;;;;;5041078;28;20029;-71
2024/04/06 09:00:09;;;;;;;6.13;2.40;;;20.00;62.10;;;;;;5037570;28;20047;-73
2024/04/06 09:02:35;;;;;;;4.03;2.28;;;20.00;62.10;;;;;;5042587;28;20060;-72
2024/04/06 09:05:02;;;;;;;6.00;2.20;;;20.00;62.10;;;;;;5037280;28;20463;-73
2024/04/06 09:07:28;;;;;;;3.67;1.55;;;20.00;62.00;;;;;;5040902;28;20029;-72
2024/04/06 09:09:54;;;;;;;4.22;2.40;;;20.00;62.00;;;;;;5041116;28;20536;-72
2024/04/06 09:12:19;;;;;;;5.18;2.13;;;20.00;62.00;;;;;;5040683;28;20036;-72
2024/04/06 09:14:46;;;;;;;3.28;2.17;;;20.00;62.00;;;;;;5037738;28;20029;-70
2024/04/06 09:17:14;;;;;;;3.33;1.70;;;20.00;61.90;;;;;;5031174;28;20506;-71
2024/04/06 09:19:40;;;;;;;5.82;2.28;;;20.00;61.90;;;;;;5033873;28;20080;-71
2024/04/06 09:22:05;;;;;;;3.85;1.90;;;20.00;61.90;;;;;;5033964;28;20033;-71
2024/04/06 09:24:31;;;;;;;3.17;1.95;;;20.00;61.90;;;;;;5036592;28;20519;-72
2024/04/06 09:27:07;;;;;;;4.80;1.75;;;20.00;61.90;;;;;;5037035;28;20029;-72
2024/04/06 09:29:32;;;;;;;3.08;1.95;;;20.00;61.90;;;;;;5035368;28;20119;-71
2024/04/06 09:32:03;;;;;;;3.55;1.77;;;20.00;61.80;;;;;;5036042;28;20544;-74
2024/04/06 09:34:29;;;;;;;3.80;1.98;;;20.00;61.90;;;;;;5027611;28;20063;-71
2024/04/06 09:37:07;;;;;;;3.42;1.75;;;20.00;61.80;;;;;;5038246;28;20040;-72
2024/04/06 09:39:35;;;;;;;3.83;1.70;;;20.00;61.80;;;;;;5041008;28;20029;-69
2024/04/06 09:42:03;;;;;;;3.33;1.85;;;20.10;61.90;;;;;;5027935;28;20033;-72
2024/04/06 09:44:31;;;;;;;4.20;1.85;;;20.10;61.80;;;;;;5039655;28;21062;-71
2024/04/06 09:46:56;;;;;;;3.03;1.73;;;20.10;61.80;;;;;;5040115;28;20036;-73
2024/04/06 09:49:26;;;;;;;3.33;1.70;;;20.00;61.70;;;;;;5039860;28;20029;-72
2024/04/06 09:51:52;;;;;;;3.20;1.60;;;20.00;61.70;;;;;;5032488;28;20451;-73
2024/04/06 09:54:19;;;;;;;4.13;1.85;;;20.10;62.40;;;;;;5044581;28;20061;-73
2024/04/06 09:56:45;;;;;;;2.58;1.70;;;20.10;61.80;;;;;;5043508;28;20036;-72
2024/04/06 09:59:21;;;;;;;2.33;1.40;;;20.00;61.70;;;;;;5041055;28;20032;-72
2024/04/06 10:01:47;;;;;;;2.55;1.48;;;20.10;61.70;;;;;;5037390;28;20040;-73
2024/04/06 10:04:33;;;;;;;2.15;1.52;;;20.10;61.70;;;;;;5039819;28;20464;-73
2024/04/06 10:07:04;;;;;;;3.05;1.52;;;20.10;61.70;;;;;;5039688;28;20029;-70
2024/04/06 10:09:30;;;;;;;3.60;1.35;;;20.10;61.70;;;;;;5044517;28;20101;-71
2024/04/06 10:12:07;;;;;;;3.10;1.52;;;20.10;61.70;;;;;;5043045;28;20092;-71
2024/04/06 10:14:43;;;;;;;2.30;1.35;;;20.10;61.70;;;;;;5044293;28;20025;-72
2024/04/06 10:17:14;;;;;;;3.15;1.70;;;20.10;61.60;;;;;;5059671;28;20124;-72
2024/04/06 10:19:40;;;;;;;2.85;1.63;;;20.10;61.70;;;;;;5044477;28;20033;-72
2024/04/06 10:22:06;;;;;;;2.20;1.42;;;20.10;61.60;;;;;;5043820;28;20144;-73
2024/04/06 10:24:35;;;;;;;3.95;1.75;;;20.10;61.60;;;;;;5049028;28;20029;-75
2024/04/06 10:27:02;;;;;;;2.95;1.50;;;20.10;61.60;;;;;;5037773;28;20036;-71
2024/04/06 10:29:28;;;;;;;2.80;1.30;;;20.10;61.60;;;;;;5057773;28;20033;-72
2024/04/06 10:31:54;;;;;;;2.13;1.38;;;20.10;61.60;;;;;;5042894;28;20037;-73
2024/04/06 10:34:20;;;;;;;2.42;1.75;;;20.10;61.50;;;;;;5042209;28;20081;-72
2024/04/06 10:36:47;;;;;;;2.47;1.30;;;20.20;61.60;;;;;;5044429;28;20127;-74
2024/04/06 10:39:14;;;;;;;3.17;1.30;;;20.10;61.50;;;;;;5049257;28;20317;-72
2024/04/06 10:41:44;;;;;;;2.78;1.33;;;20.10;61.50;;;;;;5040752;28;20105;-73
2024/04/06 10:44:11;;;;;;;3.38;1.33;;;20.10;61.50;;;;;;5043843;28;20031;-73
2024/04/06 10:46:36;;;;;;;3.20;1.35;;;20.10;61.50;;;;;;5042104;28;20118;-73
2024/04/06 10:49:09;;;;;;;2.50;1.42;;;20.10;61.50;;;;;;5042276;28;20488;-72
2024/04/06 10:51:36;;;;;;;2.03;1.08;;;20.20;61.60;;;;;;5043101;28;20037;-72
2024/04/06 10:54:02;;;;;;;2.40;1.35;;;20.10;61.50;;;;;;5042067;28;20036;-71
2024/04/06 10:56:28;;;;;;;2.45;1.52;;;20.20;61.60;;;;;;5045363;28;20111;-74
2024/04/06 10:58:53;;;;;;;2.33;1.60;;;20.10;61.50;;;;;;5045036;28;20112;-74
2024/04/06 11:01:20;;;;;;;1.38;1.13;;;20.20;61.60;;;;;;5042903;28;20021;-72
2024/04/06 11:03:49;;;;;;;2.40;1.45;;;20.20;61.50;;;;;;5039939;28;20641;-72
2024/04/06 11:06:15;;;;;;;2.70;1.13;;;20.10;61.50;;;;;;5051492;28;20113;-72
2024/04/06 11:08:41;;;;;;;1.63;1.13;;;20.20;61.60;;;;;;5044331;28;20411;-73
2024/04/06 11:11:10;;;;;;;1.73;1.23;;;20.10;61.60;;;;;;5043985;28;20500;-71
2024/04/06 11:13:39;;;;;;;1.80;1.05;;;20.20;61.60;;;;;;5044488;28;20040;-73
2024/04/06 11:16:06;;;;;;;3.33;1.38;;;20.10;61.70;;;;;;5038654;28;20499;-71
2024/04/06 11:18:39;;;;;;;2.30;1.30;;;20.10;61.70;;;;;;5044100;28;20032;-73
2024/04/06 11:21:14;;;;;;;5.97;3.30;;;20.20;61.70;;;;;;5032184;28;20025;-74
2024/04/06 11:23:43;;;;;;;7.10;4.28;;;20.10;61.80;;;;;;5043956;28;20040;-76
2024/04/06 11:26:09;;;;;;;16.40;9.00;;;20.10;61.90;;;;;;5045018;28;20496;-76
2024/04/06 11:28:35;;;;;;;27.02;14.43;;;20.20;62.00;;;;;;5039749;28;20033;-74
2024/04/06 11:31:00;;;;;;;33.40;17.83;;;20.20;62.10;;;;;;5046590;28;20024;-71
2024/04/06 11:33:26;;;;;;;35.38;20.95;;;20.10;62.20;;;;;;5039596;28;20043;-75
2024/04/06 11:35:53;;;;;;;41.40;22.63;;;20.10;62.30;;;;;;5042500;28;20037;-71
2024/04/06 11:38:19;;;;;;;46.60;26.42;;;20.10;62.90;;;;;;5046955;28;20580;-71
2024/04/06 11:40:47;;;;;;;48.47;26.40;;;20.10;62.30;;;;;;5044838;28;20045;-71
2024/04/06 11:43:14;;;;;;;45.45;26.73;;;20.10;62.20;;;;;;5048210;28;20036;-71
2024/04/06 11:45:40;;;;;;;42.38;25.60;;;20.10;62.20;;;;;;5045198;28;20204;-69
2024/04/06 11:48:06;;;;;;;45.63;26.33;;;20.20;62.20;;;;;;5042445;28;20033;-70
2024/04/06 11:50:31;;;;;;;40.72;24.60;;;20.20;62.20;;;;;;5040129;28;20049;-68
2024/04/06 11:52:57;;;;;;;40.13;23.02;;;20.10;61.90;;;;;;5044450;28;20065;-75
2024/04/06 11:55:22;;;;;;;41.33;22.63;;;20.10;62.00;;;;;;5041983;28;20033;-72
2024/04/06 11:57:48;;;;;;;37.40;21.00;;;20.10;61.90;;;;;;5042405;28;20140;-75
2024/04/06 12:00:14;;;;;;;39.65;21.35;;;20.20;62.30;;;;;;5040135;28;20070;-74
2024/04/06 12:02:41;;;;;;;33.58;18.42;;;20.10;61.90;;;;;;5041257;28;20060;-75
2024/04/06 12:05:07;;;;;;;33.05;18.90;;;20.20;61.90;;;;;;5042570;28;20082;-72
2024/04/06 12:07:33;;;;;;;32.42;18.17;;;20.10;61.80;;;;;;5041767;28;20443;-74
2024/04/06 12:09:59;;;;;;;30.00;17.52;;;20.20;61.90;;;;;;5040334;28;20033;-74
2024/04/06 12:12:24;;;;;;;30.38;17.40;;;20.20;61.90;;;;;;5038408;28;20044;-74
2024/04/06 12:14:50;;;;;;;27.13;16.30;;;20.20;61.90;;;;;;5042658;28;20514;-75
2024/04/06 12:17:24;;;;;;;30.60;16.33;;;20.20;61.90;;;;;;5037573;28;20051;-74
2024/04/06 12:19:49;;;;;;;28.30;14.65;;;20.20;61.90;;;;;;5048350;28;20041;-72
2024/04/06 12:22:15;;;;;;;26.85;14.25;;;20.20;61.80;;;;;;5038739;28;20036;-74
2024/04/06 12:24:40;;;;;;;24.95;14.45;;;20.20;61.80;;;;;;5040606;28;20339;-74
2024/04/06 12:27:06;;;;;;;26.65;15.07;;;20.20;61.80;;;;;;5043287;28;20400;-73
2024/04/06 12:29:32;;;;;;;24.60;13.32;;;20.20;61.80;;;;;;5040179;28;20443;-72
2024/04/06 12:31:57;;;;;;;24.38;13.07;;;20.20;61.80;;;;;;5041680;28;20033;-73
2024/04/06 12:34:23;;;;;;;19.88;12.10;;;20.20;61.70;;;;;;5040777;28;20371;-73
2024/04/06 12:36:49;;;;;;;22.73;11.40;;;20.20;61.70;;;;;;5026310;28;20040;-71
2024/04/06 12:39:14;;;;;;;18.02;11.20;;;20.20;61.70;;;;;;5033249;28;20382;-73
2024/04/06 12:41:40;;;;;;;19.15;10.45;;;20.20;61.60;;;;;;5033929;28;20281;-74